createdAt,value
2019-04-14T00:01:47.710Z,99.90
2019-04-14T00:04:22.501Z,99.90
2019-04-14T00:06:50.481Z,99.90
2019-04-14T00:09:20.483Z,99.90
2019-04-14T00:11:48.150Z,99.90
2019-04-14T00:14:16.266Z,99.90
2019-04-14T00:16:44.608Z,99.90
2019-04-14T00:19:12.843Z,99.90
2019-04-14T00:21:41.039Z,99.90
2019-04-14T00:24:07.996Z,99.90
2019-04-14T00:26:35.607Z,99.90
2019-04-14T00:29:04.583Z,99.90
2019-04-14T00:31:32.898Z,99.90
2019-04-14T00:34:02.907Z,99.90
2019-04-14T00:36:50.205Z,99.90
2019-04-14T00:39:29.504Z,99.90
2019-04-14T00:42:04.704Z,99.90
2019-04-14T00:44:43.004Z,99.90
2019-04-14T00:47:15.745Z,99.90
2019-04-14T00:49:43.797Z,99.90
2019-04-14T00:52:12.362Z,99.90
2019-04-14T00:54:39.605Z,99.90
2019-04-14T00:57:07.307Z,99.90
2019-04-14T00:59:35.247Z,99.90
2019-04-14T01:02:03.444Z,99.90
2019-04-14T01:04:31.544Z,99.90
2019-04-14T01:06:58.583Z,99.90
2019-04-14T01:09:26.131Z,99.90
2019-04-14T01:11:53.199Z,99.90
2019-04-14T01:14:21.306Z,99.90
2019-04-14T01:16:49.407Z,99.90
2019-04-14T01:19:17.643Z,99.90
2019-04-14T01:21:45.747Z,99.90
2019-04-14T01:24:14.166Z,99.90
2019-04-14T01:26:42.081Z,99.90
2019-04-14T01:29:10.045Z,99.90
2019-04-14T01:31:38.225Z,99.90
2019-04-14T01:34:06.338Z,99.90
2019-04-14T01:36:34.404Z,99.90
2019-04-14T01:39:02.536Z,99.90
2019-04-14T01:41:30.306Z,99.90
2019-04-14T01:43:58.264Z,99.90
2019-04-14T01:46:28.391Z,99.90
2019-04-14T01:48:54.368Z,99.90
2019-04-14T01:51:50.636Z,99.90
2019-04-14T01:54:36.691Z,99.90
2019-04-14T01:57:29.301Z,99.90
2019-04-14T01:59:58.860Z,99.90
2019-04-14T02:02:27.053Z,99.90
2019-04-14T02:04:55.268Z,99.90
2019-04-14T02:07:23.350Z,99.90
2019-04-14T02:09:51.083Z,99.90
2019-04-14T02:12:19.208Z,99.90
2019-04-14T02:14:47.327Z,99.90
2019-04-14T02:17:15.277Z,99.90
2019-04-14T02:19:43.774Z,99.90
2019-04-14T02:22:11.681Z,99.90
2019-04-14T02:24:39.566Z,99.90
2019-04-14T02:27:07.646Z,99.90
2019-04-14T02:29:34.590Z,99.90
2019-04-14T02:32:33.068Z,99.90
2019-04-14T02:34:57.228Z,99.90
2019-04-14T02:39:53.888Z,99.90
2019-04-14T02:44:53.765Z,99.90
2019-04-14T02:52:20.251Z,99.90
2019-04-14T02:54:51.952Z,99.90
2019-04-14T02:57:16.748Z,99.90
2019-04-14T02:59:45.360Z,99.90
2019-04-14T03:02:30.203Z,99.90
2019-04-14T03:04:44.854Z,99.90
2019-04-14T03:07:14.321Z,99.90
2019-04-14T03:09:42.279Z,99.90
2019-04-14T03:12:11.309Z,99.90
2019-04-14T03:14:40.462Z,99.90
2019-04-14T03:22:56.062Z,99.90
2019-04-14T03:25:27.772Z,99.90
2019-04-14T03:28:27.733Z,99.90
2019-04-14T03:31:25.522Z,99.90
2019-04-14T03:33:52.452Z,99.90
2019-04-14T03:36:40.099Z,99.90
2019-04-14T03:38:24.453Z,99.90
2019-04-14T03:41:03.774Z,99.90
2019-04-14T03:46:09.635Z,99.90
2019-04-14T03:50:57.761Z,99.90
2019-04-14T03:53:23.412Z,99.90
2019-04-14T03:56:09.790Z,99.90
2019-04-14T03:58:33.632Z,99.90
2019-04-14T04:01:01.788Z,99.90
2019-04-14T04:03:30.376Z,99.90
2019-04-14T04:05:58.536Z,99.90
2019-04-14T04:08:26.698Z,99.90
2019-04-14T04:10:55.427Z,99.90
2019-04-14T04:13:23.658Z,99.90
2019-04-14T04:15:51.985Z,99.90
2019-04-14T04:18:24.111Z,99.90
2019-04-14T04:21:03.201Z,99.90
2019-04-14T04:23:38.521Z,99.90
2019-04-14T04:26:37.069Z,99.90
2019-04-14T04:29:20.188Z,99.90
2019-04-14T04:32:16.434Z,99.90
2019-04-14T04:34:59.912Z,99.90
2019-04-14T04:37:41.208Z,99.90
2019-04-14T04:40:13.593Z,99.90
2019-04-14T04:42:41.618Z,99.90
2019-04-14T04:45:10.294Z,99.90
2019-04-14T04:47:38.354Z,99.90
2019-04-14T04:50:06.447Z,99.90
2019-04-14T04:52:34.368Z,99.90
2019-04-14T04:55:02.595Z,99.90
2019-04-14T04:57:30.439Z,99.90
2019-04-14T04:59:58.114Z,99.90
2019-04-14T05:02:25.072Z,99.90
2019-04-14T05:04:52.657Z,99.90
2019-04-14T05:07:20.886Z,99.90
2019-04-14T05:10:06.667Z,99.90
2019-04-14T05:12:50.155Z,99.90
2019-04-14T05:15:38.676Z,99.90
2019-04-14T05:18:07.134Z,99.90
2019-04-14T05:20:34.115Z,99.90
2019-04-14T05:23:01.596Z,99.90
2019-04-14T05:25:29.634Z,99.90
2019-04-14T05:27:58.159Z,99.90
2019-04-14T05:30:26.354Z,99.90
2019-04-14T05:32:54.359Z,99.90
2019-04-14T05:35:21.351Z,99.90
2019-04-14T05:37:48.651Z,99.90
2019-04-14T05:40:16.719Z,99.90
2019-04-14T05:42:45.029Z,99.90
2019-04-14T05:45:13.360Z,99.90
2019-04-14T05:47:41.388Z,99.90
2019-04-14T05:50:09.536Z,99.90
2019-04-14T05:52:38.167Z,99.90
2019-04-14T05:55:06.630Z,99.90
2019-04-14T05:57:35.185Z,99.90
2019-04-14T06:00:04.570Z,99.90
2019-04-14T06:02:33.498Z,99.90
2019-04-14T06:05:01.555Z,99.90
2019-04-14T06:07:28.452Z,99.90
2019-04-14T06:09:55.432Z,99.90
2019-04-14T06:12:22.463Z,99.90
2019-04-14T06:14:49.505Z,99.90
2019-04-14T06:17:16.304Z,99.90
2019-04-14T06:19:43.257Z,99.80
2019-04-14T06:22:10.016Z,99.90
2019-04-14T06:24:37.000Z,99.60
2019-04-14T06:27:04.157Z,98.80
2019-04-14T06:29:30.925Z,98.40
2019-04-14T06:32:19.528Z,98.00
2019-04-14T06:35:09.746Z,98.40
2019-04-14T06:37:42.177Z,98.30
2019-04-14T06:40:09.181Z,98.90
2019-04-14T06:42:36.200Z,99.60
2019-04-14T06:45:03.310Z,99.70
2019-04-14T06:47:30.208Z,98.70
2019-04-14T06:49:57.113Z,98.90
2019-04-14T06:52:23.893Z,98.60
2019-04-14T06:54:50.654Z,98.40
2019-04-14T06:57:17.559Z,98.70
2019-04-14T06:59:44.680Z,98.20
2019-04-14T07:02:11.541Z,98.10
2019-04-14T07:04:38.305Z,97.90
2019-04-14T07:07:05.460Z,97.80
2019-04-14T07:09:32.325Z,98.50
2019-04-14T07:11:59.104Z,97.90
2019-04-14T07:14:25.962Z,97.10
2019-04-14T07:16:52.979Z,96.30
2019-04-14T07:19:19.946Z,96.90
2019-04-14T07:21:46.728Z,95.10
2019-04-14T07:24:13.619Z,95.40
2019-04-14T07:26:40.756Z,94.60
2019-04-14T07:29:07.817Z,94.50
2019-04-14T07:31:57.522Z,93.30
2019-04-14T07:35:01.989Z,93.50
2019-04-14T07:38:06.293Z,92.00
2019-04-14T07:40:51.432Z,92.20
2019-04-14T07:43:31.087Z,92.50
2019-04-14T07:46:11.368Z,92.30
2019-04-14T07:48:52.362Z,91.40
2019-04-14T07:51:50.956Z,91.40
2019-04-14T07:54:37.665Z,90.50
2019-04-14T07:57:26.725Z,90.10
2019-04-14T07:59:58.583Z,88.00
2019-04-14T08:02:29.151Z,88.80
2019-04-14T08:05:07.480Z,87.70
2019-04-14T08:07:34.725Z,85.40
2019-04-14T08:10:01.631Z,83.40
2019-04-14T08:12:28.505Z,84.50
2019-04-14T08:14:55.621Z,82.40
2019-04-14T08:17:22.709Z,82.10
2019-04-14T08:19:49.492Z,81.90
2019-04-14T08:22:16.225Z,83.60
2019-04-14T08:24:43.236Z,80.70
2019-04-14T08:27:10.011Z,80.40
2019-04-14T08:29:37.179Z,77.60
2019-04-14T08:32:04.181Z,76.00
2019-04-14T08:34:31.114Z,74.40
2019-04-14T08:36:57.976Z,73.90
2019-04-14T08:39:25.216Z,74.00
2019-04-14T08:42:03.641Z,71.50
2019-04-14T08:44:40.948Z,69.80
2019-04-14T08:47:26.521Z,67.50
2019-04-14T08:49:56.642Z,67.10
2019-04-14T08:52:41.996Z,65.30
2019-04-14T08:55:17.491Z,62.10
2019-04-14T08:57:54.532Z,63.10
2019-04-14T09:00:28.662Z,64.20
2019-04-14T09:03:11.657Z,63.10
2019-04-14T09:06:03.594Z,59.40
2019-04-14T09:08:35.043Z,59.70
2019-04-14T09:11:03.676Z,61.80
2019-04-14T09:13:30.560Z,59.60
2019-04-14T09:15:58.142Z,59.70
2019-04-14T09:18:24.928Z,59.90
2019-04-14T09:20:52.828Z,59.60
2019-04-14T09:23:19.712Z,60.60
2019-04-14T09:25:46.752Z,59.10
2019-04-14T09:28:13.778Z,58.60
2019-04-14T09:30:40.565Z,57.10
2019-04-14T09:33:07.332Z,56.70
2019-04-14T09:35:34.220Z,55.10
2019-04-14T09:38:01.452Z,55.80
2019-04-14T09:40:28.210Z,56.60
2019-04-14T09:42:57.758Z,54.90
2019-04-14T09:45:24.613Z,54.00
2019-04-14T09:47:51.612Z,54.50
2019-04-14T09:50:18.555Z,53.00
2019-04-14T09:52:45.568Z,53.60
2019-04-14T09:55:12.693Z,52.40
2019-04-14T09:57:39.495Z,54.00
2019-04-14T10:00:07.026Z,52.60
2019-04-14T10:02:33.957Z,55.60
2019-04-14T10:05:00.740Z,51.70
2019-04-14T10:07:27.628Z,51.80
2019-04-14T10:09:54.509Z,51.30
2019-04-14T10:12:21.529Z,55.30
2019-04-14T10:14:48.625Z,52.20
2019-04-14T10:17:15.391Z,52.00
2019-04-14T10:19:42.247Z,53.00
2019-04-14T10:22:09.115Z,51.00
2019-04-14T10:24:36.013Z,55.00
2019-04-14T10:27:03.145Z,52.60
2019-04-14T10:29:30.120Z,53.20
2019-04-14T10:31:56.957Z,52.80
2019-04-14T10:34:23.719Z,52.10
2019-04-14T10:36:50.721Z,52.20
2019-04-14T10:39:17.757Z,51.80
2019-04-14T10:41:44.786Z,51.80
2019-04-14T10:44:11.681Z,54.00
2019-04-14T10:46:38.575Z,51.30
2019-04-14T10:49:05.432Z,52.60
2019-04-14T10:51:34.050Z,52.20
2019-04-14T10:54:00.894Z,50.10
2019-04-14T10:56:27.989Z,52.00
2019-04-14T10:58:55.055Z,51.70
2019-04-14T11:01:22.261Z,52.00
2019-04-14T11:03:49.188Z,51.80
2019-04-14T11:06:29.803Z,51.90
2019-04-14T11:08:56.976Z,48.60
2019-04-14T11:11:23.810Z,48.70
2019-04-14T11:13:50.958Z,50.10
2019-04-14T11:16:17.948Z,49.00
2019-04-14T11:18:44.758Z,49.00
2019-04-14T11:21:11.525Z,47.70
2019-04-14T11:23:38.281Z,45.80
2019-04-14T11:26:05.192Z,47.50
2019-04-14T11:28:32.008Z,46.30
2019-04-14T11:30:58.999Z,46.50
2019-04-14T11:33:45.465Z,48.80
2019-04-14T11:36:21.756Z,47.80
2019-04-14T11:38:53.640Z,46.80
2019-04-14T11:41:22.501Z,48.60
2019-04-14T11:43:49.404Z,45.20
2019-04-14T11:46:16.396Z,46.40
2019-04-14T11:48:43.211Z,47.00
2019-04-14T11:51:10.386Z,46.20
2019-04-14T11:53:37.533Z,48.30
2019-04-14T11:56:04.542Z,45.00
2019-04-14T11:58:31.646Z,48.00
2019-04-14T12:01:24.081Z,48.10
2019-04-14T12:03:59.816Z,45.50
2019-04-14T12:06:45.092Z,47.30
2019-04-14T12:09:21.282Z,46.50
2019-04-14T12:11:48.383Z,47.20
2019-04-14T12:14:15.176Z,43.90
2019-04-14T12:16:42.206Z,43.60
2019-04-14T12:19:09.180Z,45.50
2019-04-14T12:21:36.101Z,46.80
2019-04-14T12:24:03.159Z,46.30
2019-04-14T12:26:30.173Z,47.60
2019-04-14T12:28:58.386Z,48.00
2019-04-14T12:31:26.526Z,48.60
2019-04-14T12:33:54.301Z,49.70
2019-04-14T12:36:21.936Z,51.30
2019-04-14T12:38:48.697Z,49.90
2019-04-14T12:41:20.240Z,51.00
2019-04-14T12:44:13.892Z,50.90
2019-04-14T12:46:50.293Z,51.70
2019-04-14T12:49:27.960Z,51.30
2019-04-14T12:52:20.967Z,53.00
2019-04-14T12:54:41.831Z,51.30
2019-04-14T12:57:08.580Z,52.00
2019-04-14T12:59:36.035Z,50.50
2019-04-14T13:02:11.058Z,51.70
2019-04-14T13:04:38.468Z,51.30
2019-04-14T13:07:05.268Z,49.40
2019-04-14T13:09:32.138Z,50.90
2019-04-14T13:11:58.914Z,51.30
2019-04-14T13:14:26.349Z,51.90
2019-04-14T13:16:53.131Z,52.00
2019-04-14T13:19:19.976Z,50.80
2019-04-14T13:21:46.740Z,51.10
2019-04-14T13:24:13.843Z,52.60
2019-04-14T13:26:40.622Z,53.30
2019-04-14T13:29:07.489Z,52.30
2019-04-14T13:31:34.604Z,53.00
2019-04-14T13:34:02.137Z,53.50
2019-04-14T13:36:28.919Z,53.50
2019-04-14T13:38:55.726Z,54.60
2019-04-14T13:41:22.692Z,56.90
2019-04-14T13:43:49.699Z,57.50
2019-04-14T13:46:16.780Z,56.20
2019-04-14T13:48:43.667Z,54.70
2019-04-14T13:51:10.423Z,54.90
2019-04-14T13:53:37.224Z,55.00
2019-04-14T13:56:04.774Z,54.90
2019-04-14T13:58:31.572Z,54.30
2019-04-14T14:00:58.672Z,56.50
2019-04-14T14:03:26.052Z,57.10
2019-04-14T14:05:55.513Z,56.80
2019-04-14T14:08:22.642Z,59.10
2019-04-14T14:10:51.766Z,59.20
2019-04-14T14:13:39.980Z,57.50
2019-04-14T14:16:29.833Z,58.90
2019-04-14T14:19:19.382Z,59.60
2019-04-14T14:22:11.545Z,59.70
2019-04-14T14:24:58.434Z,61.00
2019-04-14T14:27:25.212Z,62.80
2019-04-14T14:29:51.980Z,63.00
2019-04-14T14:32:24.190Z,62.60
2019-04-14T14:34:51.177Z,65.50
2019-04-14T14:37:17.945Z,66.90
2019-04-14T14:39:44.793Z,65.30
2019-04-14T14:42:11.608Z,66.10
2019-04-14T14:44:43.521Z,68.10
2019-04-14T14:47:14.932Z,67.80
2019-04-14T14:49:56.368Z,68.00
2019-04-14T14:52:23.811Z,68.60
2019-04-14T14:54:50.580Z,69.20
2019-04-14T14:57:17.592Z,69.40
2019-04-14T15:00:01.755Z,70.70
2019-04-14T15:02:28.805Z,71.10
2019-04-14T15:04:55.590Z,71.40
2019-04-14T15:07:22.431Z,70.50
2019-04-14T15:09:49.419Z,72.60
2019-04-14T15:12:16.797Z,75.20
2019-04-14T15:14:43.621Z,74.70
2019-04-14T15:17:10.746Z,75.10
2019-04-14T15:19:37.780Z,76.40
2019-04-14T15:22:05.026Z,76.60
2019-04-14T15:24:31.881Z,77.60
2019-04-14T15:26:58.915Z,78.00
2019-04-14T15:29:25.845Z,78.10
2019-04-14T15:31:52.891Z,76.90
2019-04-14T15:34:19.884Z,78.50
2019-04-14T15:36:46.676Z,79.80
2019-04-14T15:39:14.094Z,78.20
2019-04-14T15:41:40.966Z,78.30
2019-04-14T15:44:08.186Z,80.50
2019-04-14T15:46:35.193Z,80.30
2019-04-14T15:49:02.567Z,81.50
2019-04-14T15:51:30.863Z,80.40
2019-04-14T15:53:57.715Z,81.30
2019-04-14T15:56:52.984Z,82.10
2019-04-14T15:59:39.706Z,82.50
2019-04-14T16:02:13.632Z,83.90
2019-04-14T16:04:46.360Z,84.40
2019-04-14T16:07:19.848Z,85.30
2019-04-14T16:10:01.335Z,84.60
2019-04-14T16:12:34.214Z,84.70
2019-04-14T16:15:29.249Z,83.50
2019-04-14T16:18:10.116Z,82.70
2019-04-14T16:20:38.699Z,83.90
2019-04-14T16:23:05.599Z,85.10
2019-04-14T16:25:52.571Z,86.50
2019-04-14T16:28:27.160Z,86.60
2019-04-14T16:31:13.608Z,87.80
2019-04-14T16:33:59.169Z,89.30
2019-04-14T16:36:26.078Z,90.00
2019-04-14T16:38:52.899Z,90.60
2019-04-14T16:41:20.243Z,91.30
2019-04-14T16:43:47.113Z,91.40
2019-04-14T16:46:14.157Z,91.70
2019-04-14T16:48:41.200Z,92.60
2019-04-14T16:51:11.177Z,92.90
2019-04-14T16:53:40.415Z,93.30
2019-04-14T16:56:25.860Z,93.60
2019-04-14T16:58:55.384Z,93.90
2019-04-14T17:01:42.393Z,94.00
2019-04-14T17:04:09.180Z,94.60
2019-04-14T17:06:36.196Z,94.60
2019-04-14T17:09:06.237Z,94.70
2019-04-14T17:11:33.021Z,95.40
2019-04-14T17:14:04.432Z,96.00
2019-04-14T17:16:54.180Z,96.00
2019-04-14T17:19:28.453Z,96.30
2019-04-14T17:22:17.955Z,97.10
2019-04-14T17:25:11.452Z,97.10
2019-04-14T17:27:42.341Z,97.40
2019-04-14T17:30:29.347Z,97.70
2019-04-14T17:33:16.939Z,98.00
2019-04-14T17:36:18.568Z,98.90
2019-04-14T17:39:04.328Z,98.60
2019-04-14T17:41:37.415Z,99.20
2019-04-14T17:44:11.009Z,99.80
2019-04-14T17:46:44.873Z,99.90
2019-04-14T17:49:29.835Z,99.90
2019-04-14T17:52:16.362Z,99.90
2019-04-14T17:54:52.303Z,99.90
2019-04-14T17:57:31.972Z,99.90
2019-04-14T18:00:17.091Z,99.90
2019-04-14T18:02:59.574Z,99.90
2019-04-14T18:05:33.948Z,99.90
2019-04-14T18:08:12.679Z,99.90
2019-04-14T18:10:47.299Z,99.90
2019-04-14T18:13:33.849Z,99.90
2019-04-14T18:16:04.995Z,99.90
2019-04-14T18:18:57.001Z,99.90
2019-04-14T18:21:23.800Z,99.90
2019-04-14T18:23:50.644Z,99.90
2019-04-14T18:26:17.628Z,99.90
2019-04-14T18:28:58.666Z,99.90
2019-04-14T18:31:39.257Z,99.90
2019-04-14T18:34:24.368Z,99.90
2019-04-14T18:36:56.476Z,99.90
2019-04-14T18:39:46.044Z,99.90
2019-04-14T18:42:18.112Z,99.90
2019-04-14T18:45:13.550Z,99.90
2019-04-14T18:48:05.828Z,99.90
2019-04-14T18:50:58.041Z,99.90
2019-04-14T18:53:38.905Z,99.90
2019-04-14T18:56:10.726Z,99.90
2019-04-14T18:58:57.526Z,99.90
2019-04-14T19:01:36.847Z,99.90
2019-04-14T19:04:04.080Z,99.90
2019-04-14T19:06:31.196Z,99.90
2019-04-14T19:08:58.449Z,99.90
2019-04-14T19:11:38.831Z,99.90
2019-04-14T19:14:06.456Z,99.90
2019-04-14T19:16:40.231Z,99.90
2019-04-14T19:19:07.739Z,99.90
2019-04-14T19:21:34.661Z,99.90
2019-04-14T19:24:01.679Z,99.90
2019-04-14T19:26:28.652Z,99.90
2019-04-14T19:28:55.866Z,99.90
2019-04-14T19:31:23.091Z,99.90
2019-04-14T19:33:51.807Z,99.90
2019-04-14T19:36:18.668Z,99.90
2019-04-14T19:38:45.738Z,99.90
2019-04-14T19:41:12.632Z,99.90
2019-04-14T19:43:39.837Z,99.90
2019-04-14T19:46:06.662Z,99.90
2019-04-14T19:48:47.867Z,99.90
2019-04-14T19:51:15.078Z,99.90
2019-04-14T19:53:41.852Z,99.90
2019-04-14T19:56:09.221Z,99.90
2019-04-14T19:58:36.132Z,99.90
2019-04-14T20:01:03.241Z,99.90
2019-04-14T20:03:30.560Z,99.90
2019-04-14T20:05:57.339Z,99.90
2019-04-14T20:08:24.317Z,99.90
2019-04-14T20:10:51.212Z,99.90
2019-04-14T20:13:18.077Z,99.90
2019-04-14T20:16:19.624Z,99.90
2019-04-14T20:19:10.641Z,99.90
2019-04-14T20:21:42.665Z,99.90
2019-04-14T20:24:15.134Z,99.90
2019-04-14T20:26:55.509Z,99.90
2019-04-14T20:29:26.074Z,99.90
2019-04-14T20:32:00.139Z,99.90
2019-04-14T20:34:27.004Z,99.90
2019-04-14T20:36:53.769Z,99.90
2019-04-14T20:39:21.245Z,99.90
2019-04-14T20:41:48.100Z,99.90
2019-04-14T20:44:15.097Z,99.90
2019-04-14T20:46:42.432Z,99.90
2019-04-14T20:49:09.587Z,99.90
2019-04-14T20:51:36.544Z,99.90
2019-04-14T20:54:03.544Z,99.90
2019-04-14T20:56:30.612Z,99.90
2019-04-14T20:58:57.481Z,99.90
2019-04-14T21:01:26.139Z,99.90
2019-04-14T21:04:28.035Z,99.90
2019-04-14T21:07:13.504Z,99.90
2019-04-14T21:09:48.018Z,99.90
2019-04-14T21:12:23.365Z,99.90
2019-04-14T21:14:58.487Z,99.90
2019-04-14T21:17:32.424Z,99.90
2019-04-14T21:20:05.489Z,99.90
2019-04-14T21:22:35.705Z,99.90
2019-04-14T21:25:25.404Z,99.90
2019-04-14T21:28:20.652Z,99.90
2019-04-14T21:30:55.125Z,99.90
2019-04-14T21:33:44.182Z,99.90
2019-04-14T21:36:18.776Z,99.90
2019-04-14T21:38:51.821Z,99.90
2019-04-14T21:41:24.404Z,99.90
2019-04-14T21:43:51.733Z,99.90
2019-04-14T21:46:18.540Z,99.90
2019-04-14T21:48:45.267Z,99.90
2019-04-14T21:51:12.012Z,99.90
2019-04-14T21:53:39.271Z,99.90
2019-04-14T21:56:13.348Z,99.90
2019-04-14T21:58:47.022Z,99.90
2019-04-14T22:01:51.393Z,99.90
2019-04-14T22:04:52.967Z,99.90
2019-04-14T22:07:30.275Z,99.90
2019-04-14T22:10:01.958Z,99.90
2019-04-14T22:12:28.805Z,99.90
2019-04-14T22:14:55.855Z,99.90
2019-04-14T22:17:22.786Z,99.90
2019-04-14T22:19:49.919Z,99.90
2019-04-14T22:22:16.674Z,99.90
2019-04-14T22:24:43.440Z,99.90
2019-04-14T22:27:10.305Z,99.90
2019-04-14T22:29:37.465Z,99.90
2019-04-14T22:32:05.115Z,99.90
2019-04-14T22:34:32.370Z,99.90
2019-04-14T22:36:59.483Z,99.90
2019-04-14T22:39:27.049Z,99.90
2019-04-14T22:41:54.833Z,99.90
2019-04-14T22:44:22.167Z,99.90
2019-04-14T22:46:49.816Z,99.90
2019-04-14T22:49:17.241Z,99.90
2019-04-14T22:51:44.335Z,99.90
2019-04-14T22:54:11.562Z,99.90
2019-04-14T22:56:39.777Z,99.90
2019-04-14T22:59:07.017Z,99.90
2019-04-14T23:01:36.556Z,99.90
2019-04-14T23:04:32.925Z,99.90
2019-04-14T23:24:39.400Z,99.90
2019-04-14T23:27:06.561Z,99.90
2019-04-14T23:29:33.578Z,99.90
2019-04-14T23:32:00.952Z,99.90
2019-04-14T23:34:28.169Z,99.90
2019-04-14T23:36:56.120Z,99.90
2019-04-14T23:39:23.113Z,99.90
2019-04-14T23:41:50.193Z,99.90
2019-04-14T23:44:18.196Z,99.90
2019-04-14T23:46:45.688Z,99.90
2019-04-14T23:49:13.068Z,99.90
2019-04-14T23:51:40.095Z,99.90
2019-04-14T23:54:07.429Z,99.90
2019-04-14T23:56:34.764Z,99.90
2019-04-14T23:59:02.166Z,99.90
